Time;durP1;ratioP1;P1;durP2;ratioP2;P2;SDS_P1;SDS_P2;PMS_P1;PMS_P2;Temp;Humidity;BMP_temperature;BMP_pressure;BME280_temperature;BME280_humidity;BME280_pressure;Samples;Min_cycle;Max_cycle;Signal;HPM_P1;HPM_P2
2022/01/29 00:02:22;;;;;;;;;;;19.30;37.60;;;;;;5076116;28;19943;-64
2022/01/29 00:04:47;;;;;;;;;;;19.30;37.60;;;;;;5094359;28;19909;-64
2022/01/29 00:07:13;;;;;;;;;;;19.40;37.60;;;;;;5094070;28;19946;-64
2022/01/29 00:09:39;;;;;;;;;;;19.30;37.60;;;;;;5093965;28;20271;-63
2022/01/29 00:12:04;;;;;;;;;;;19.40;37.60;;;;;;5094063;28;19912;-64
2022/01/29 00:14:30;;;;;;;;;;;19.30;37.60;;;;;;5093939;28;19959;-63
2022/01/29 00:16:55;;;;;;;;;;;19.30;37.70;;;;;;5093997;28;19908;-64
2022/01/29 00:19:20;;;;;;;;;;;19.30;37.70;;;;;;5094015;28;19915;-64
2022/01/29 00:21:46;;;;;;;;;;;19.30;37.70;;;;;;5093799;28;19994;-65
2022/01/29 00:24:11;;;;;;;;;;;19.30;37.60;;;;;;5093781;28;19943;-64
2022/01/29 00:26:37;;;;;;;;;;;19.30;37.70;;;;;;5093701;28;19915;-64
2022/01/29 00:29:16;;;;;;;;;;;19.30;37.70;;;;;;5093874;28;19912;-64
2022/01/29 00:31:41;;;;;;;;;;;19.30;37.70;;;;;;5093751;28;19908;-64
2022/01/29 00:34:07;;;;;;;;;;;19.30;37.60;;;;;;5093768;28;20286;-65
2022/01/29 00:36:32;;;;;;;;;;;19.30;37.70;;;;;;5093628;28;19908;-65
2022/01/29 00:38:57;;;;;;;;;;;19.30;37.70;;;;;;5075500;28;19908;-65
2022/01/29 00:41:23;;;;;;;;;;;19.30;37.70;;;;;;5093472;28;19961;-64
2022/01/29 00:43:48;;;;;;;;;;;19.30;37.70;;;;;;5092998;28;19908;-64
2022/01/29 00:46:14;;;;;;;;;;;19.30;37.70;;;;;;5093596;28;19916;-65
2022/01/29 00:48:39;;;;;;;;;;;19.30;37.70;;;;;;5093410;28;20364;-64
2022/01/29 00:51:04;;;;;;;;;;;19.20;37.70;;;;;;5093313;28;20402;-64
2022/01/29 00:53:30;;;;;;;;;;;19.20;37.70;;;;;;5093461;28;19908;-64
2022/01/29 00:55:55;;;;;;;;;;;19.20;37.80;;;;;;5093563;28;19919;-65
2022/01/29 00:58:21;;;;;;;;;;;19.20;37.80;;;;;;5093417;28;19919;-64
2022/01/29 01:00:46;;;;;;;;;;;19.20;37.70;;;;;;5093255;28;20430;-64
2022/01/29 01:03:12;;;;;;;;;;;19.20;37.80;;;;;;5093234;28;19909;-62
2022/01/29 01:05:37;;;;;;;;;;;19.20;37.80;;;;;;5093307;28;19955;-64
2022/01/29 01:08:03;;;;;;;;;;;19.20;37.80;;;;;;5093130;28;20286;-63
2022/01/29 01:10:28;;;;;;;;;;;19.20;37.80;;;;;;5093161;28;19962;-62
2022/01/29 01:12:54;;;;;;;;;;;19.20;37.70;;;;;;5093174;28;19958;-63
2022/01/29 01:15:19;;;;;;;;;;;19.20;37.80;;;;;;5093424;28;19912;-63
2022/01/29 01:17:44;;;;;;;;;;;19.20;37.80;;;;;;5093144;28;19934;-64
2022/01/29 01:20:10;;;;;;;;;;;19.20;37.80;;;;;;5093163;28;19956;-63
2022/01/29 01:22:36;;;;;;;;;;;19.20;37.80;;;;;;5093055;28;20260;-64
2022/01/29 01:25:01;;;;;;;;;;;19.20;37.70;;;;;;5092998;28;19977;-63
2022/01/29 01:27:27;;;;;;;;;;;19.20;37.80;;;;;;5092930;28;19916;-63
2022/01/29 01:29:52;;;;;;;;;;;19.20;37.80;;;;;;5092874;28;19931;-62
2022/01/29 01:32:18;;;;;;;;;;;19.20;37.80;;;;;;5092911;28;19915;-63
2022/01/29 01:34:48;;;;;;;;;;;19.20;37.80;;;;;;5074744;28;19914;-63
2022/01/29 01:37:28;;;;;;;;;;;19.20;37.80;;;;;;5092942;28;20322;-63
2022/01/29 01:39:53;;;;;;;;;;;19.20;37.80;;;;;;5093066;28;19915;-63
2022/01/29 01:42:19;;;;;;;;;;;19.20;37.80;;;;;;5092930;28;19912;-63
2022/01/29 01:44:46;;;;;;;;;;;19.20;37.80;;;;;;5092988;28;19912;-63
2022/01/29 01:47:16;;;;;;;;;;;19.20;37.80;;;;;;5074726;28;19915;-63
2022/01/29 01:49:42;;;;;;;;;;;19.20;37.80;;;;;;5075007;28;19951;-63
2022/01/29 01:52:10;;;;;;;;;;;19.20;37.80;;;;;;5092883;28;19960;-63
2022/01/29 01:54:36;;;;;;;;;;;19.20;37.80;;;;;;5092791;28;19912;-63
2022/01/29 01:57:02;;;;;;;;;;;19.20;37.80;;;;;;5096258;28;20248;-62
2022/01/29 01:59:28;;;;;;;;;;;19.20;37.90;;;;;;5078351;28;19953;-64
2022/01/29 02:01:53;;;;;;;;;;;19.20;37.80;;;;;;5096505;28;19908;-63
2022/01/29 02:04:19;;;;;;;;;;;19.10;37.80;;;;;;5096423;28;19912;-63
2022/01/29 02:06:45;;;;;;;;;;;19.20;37.90;;;;;;5096282;28;19908;-63
2022/01/29 02:09:14;;;;;;;;;;;19.20;37.90;;;;;;5096385;28;19912;-64
2022/01/29 02:11:47;;;;;;;;;;;19.20;37.80;;;;;;5096560;28;19908;-63
2022/01/29 02:14:13;;;;;;;;;;;19.20;37.90;;;;;;5096174;28;20316;-64
2022/01/29 02:16:39;;;;;;;;;;;19.20;37.90;;;;;;5096132;28;19908;-64
2022/01/29 02:19:04;;;;;;;;;;;19.20;37.90;;;;;;5096086;28;19976;-63
2022/01/29 02:21:30;;;;;;;;;;;19.10;37.90;;;;;;5077938;28;20276;-64
2022/01/29 02:23:55;;;;;;;;;;;19.20;37.90;;;;;;5096190;28;20355;-64
2022/01/29 02:26:20;;;;;;;;;;;19.20;37.90;;;;;;5095987;28;20002;-64
2022/01/29 02:28:46;;;;;;;;;;;19.20;38.00;;;;;;5095973;28;19920;-63
2022/01/29 02:31:12;;;;;;;;;;;19.10;37.90;;;;;;5096180;28;20359;-63
2022/01/29 02:33:40;;;;;;;;;;;19.10;38.00;;;;;;5095782;28;20276;-63
2022/01/29 02:36:05;;;;;;;;;;;19.10;37.90;;;;;;5095934;28;19951;-63
2022/01/29 02:38:31;;;;;;;;;;;19.10;37.90;;;;;;5095992;28;20314;-63
2022/01/29 02:41:01;;;;;;;;;;;19.10;37.90;;;;;;5095675;28;19970;-63
2022/01/29 02:43:28;;;;;;;;;;;19.10;37.90;;;;;;5095717;28;19908;-64
2022/01/29 02:45:54;;;;;;;;;;;19.10;38.00;;;;;;5095800;28;19908;-64
2022/01/29 02:48:21;;;;;;;;;;;19.10;37.90;;;;;;5095431;28;19923;-63
2022/01/29 02:50:47;;;;;;;;;;;19.10;38.00;;;;;;5095518;28;19908;-63
2022/01/29 02:53:13;;;;;;;;;;;19.10;38.00;;;;;;5095507;28;19916;-63
2022/01/29 02:55:39;;;;;;;;;;;19.10;37.90;;;;;;5095419;28;19915;-64
2022/01/29 02:58:04;;;;;;;;;;;19.10;38.00;;;;;;5095339;28;19935;-63
2022/01/29 03:00:30;;;;;;;;;;;19.10;38.00;;;;;;5095170;28;20375;-64
2022/01/29 03:02:56;;;;;;;;;;;19.10;38.00;;;;;;5095221;28;19908;-63
2022/01/29 03:05:21;;;;;;;;;;;19.10;38.00;;;;;;5095238;28;20436;-64
2022/01/29 03:07:46;;;;;;;;;;;19.10;38.00;;;;;;5076064;28;19923;-64
2022/01/29 03:10:12;;;;;;;;;;;19.10;38.10;;;;;;5095734;28;19908;-64
2022/01/29 03:12:40;;;;;;;;;;;19.10;38.00;;;;;;5095410;28;19908;-64
2022/01/29 03:15:06;;;;;;;;;;;19.10;38.00;;;;;;5095315;28;20302;-64
2022/01/29 03:17:31;;;;;;;;;;;19.10;38.10;;;;;;5095083;28;19908;-63
2022/01/29 03:19:56;;;;;;;;;;;19.10;38.10;;;;;;5094968;28;20351;-63
2022/01/29 03:22:22;;;;;;;;;;;19.10;38.10;;;;;;5095304;28;20379;-63
2022/01/29 03:24:47;;;;;;;;;;;19.10;38.10;;;;;;5095117;28;20338;-63
2022/01/29 03:27:13;;;;;;;;;;;19.10;38.10;;;;;;5094784;28;19951;-63
2022/01/29 03:29:38;;;;;;;;;;;19.10;38.10;;;;;;5094818;28;19961;-63
2022/01/29 03:32:04;;;;;;;;;;;19.10;38.10;;;;;;5094635;28;19912;-63
2022/01/29 03:34:30;;;;;;;;;;;19.10;38.10;;;;;;5094672;28;19938;-64
2022/01/29 03:36:56;;;;;;;;;;;19.10;38.10;;;;;;5094723;28;20006;-64
2022/01/29 03:39:23;;;;;;;;;;;19.10;38.10;;;;;;5094795;28;19987;-64
2022/01/29 03:41:49;;;;;;;;;;;19.10;38.10;;;;;;5094695;28;20264;-65
2022/01/29 03:44:15;;;;;;;;;;;19.10;38.10;;;;;;5094599;28;19919;-65
2022/01/29 03:46:40;;;;;;;;;;;19.10;38.10;;;;;;5094705;28;20366;-64
2022/01/29 03:49:06;;;;;;;;;;;19.10;38.10;;;;;;5094624;28;19916;-64
2022/01/29 03:51:31;;;;;;;;;;;19.10;38.10;;;;;;5094569;28;19922;-66
2022/01/29 03:53:56;;;;;;;;;;;19.10;38.10;;;;;;5094456;28;20010;-64
2022/01/29 03:56:22;;;;;;;;;;;19.10;38.10;;;;;;5094256;28;19908;-65
2022/01/29 03:58:47;;;;;;;;;;;19.10;38.20;;;;;;5094098;28;19961;-64
2022/01/29 04:01:13;;;;;;;;;;;19.10;38.20;;;;;;5094249;28;20167;-65
2022/01/29 04:03:38;;;;;;;;;;;19.10;38.20;;;;;;5094471;28;20007;-64
2022/01/29 04:06:04;;;;;;;;;;;19.00;38.20;;;;;;5094107;28;19919;-65
2022/01/29 04:08:32;;;;;;;;;;;19.00;38.20;;;;;;5094181;28;19916;-65
2022/01/29 04:10:58;;;;;;;;;;;19.00;38.20;;;;;;5094085;28;19909;-64
2022/01/29 04:13:26;;;;;;;;;;;19.10;38.20;;;;;;5094171;28;19937;-63
2022/01/29 04:15:51;;;;;;;;;;;19.00;38.20;;;;;;5093849;28;19962;-63
2022/01/29 04:18:18;;;;;;;;;;;19.00;38.20;;;;;;5093976;28;19989;-64
2022/01/29 04:20:44;;;;;;;;;;;19.10;38.20;;;;;;5093800;28;20007;-63
2022/01/29 04:23:10;;;;;;;;;;;19.10;38.30;;;;;;5093779;28;19908;-63
2022/01/29 04:25:35;;;;;;;;;;;19.10;38.20;;;;;;5093852;28;20041;-64
2022/01/29 04:28:02;;;;;;;;;;;19.10;38.30;;;;;;5093632;28;19912;-64
2022/01/29 04:30:33;;;;;;;;;;;19.00;38.20;;;;;;5093658;28;19908;-64
2022/01/29 04:33:44;;;;;;;;;;;19.10;38.20;;;;;;5093962;28;20318;-65
2022/01/29 04:35:45;;;;;;;;;;;19.10;38.30;;;;;;5075915;28;20033;-64
2022/01/29 04:38:11;;;;;;;;;;;19.00;38.30;;;;;;5075501;28;19958;-64
2022/01/29 04:40:36;;;;;;;;;;;19.00;38.30;;;;;;5093583;28;19908;-64
2022/01/29 04:43:02;;;;;;;;;;;19.00;38.30;;;;;;5093496;28;19908;-63
2022/01/29 04:45:28;;;;;;;;;;;19.00;38.30;;;;;;5093544;28;19908;-64
2022/01/29 04:47:53;;;;;;;;;;;19.00;38.30;;;;;;5093417;28;20417;-64
2022/01/29 04:50:19;;;;;;;;;;;19.00;38.40;;;;;;5093390;28;20352;-64
2022/01/29 04:52:44;;;;;;;;;;;19.00;38.40;;;;;;5093426;28;20345;-65
2022/01/29 04:55:10;;;;;;;;;;;19.00;38.40;;;;;;5093389;28;19915;-64
2022/01/29 04:57:37;;;;;;;;;;;19.00;38.40;;;;;;5093386;28;19908;-63
2022/01/29 05:00:08;;;;;;;;;;;19.00;38.50;;;;;;5075163;28;20371;-64
2022/01/29 05:02:34;;;;;;;;;;;19.00;38.40;;;;;;5093667;28;19908;-63
2022/01/29 05:05:00;;;;;;;;;;;19.00;38.40;;;;;;5093413;28;20279;-63
2022/01/29 05:07:25;;;;;;;;;;;19.00;38.50;;;;;;5075150;28;19912;-64
2022/01/29 05:09:51;;;;;;;;;;;19.00;38.50;;;;;;5093286;28;19912;-64
2022/01/29 05:12:23;;;;;;;;;;;19.00;38.40;;;;;;5093131;28;19908;-63
2022/01/29 05:28:03;;;;;;;;;;;19.10;38.30;;;;;;5093580;28;20374;-64
2022/01/29 05:30:29;;;;;;;;;;;19.20;38.30;;;;;;5075680;28;19908;-64
2022/01/29 05:32:54;;;;;;;;;;;19.20;38.30;;;;;;5097024;28;20295;-64
2022/01/29 05:35:20;;;;;;;;;;;19.20;38.30;;;;;;5078778;28;20313;-63
2022/01/29 05:37:49;;;;;;;;;;;19.20;38.20;;;;;;5096921;28;20348;-65
2022/01/29 05:40:15;;;;;;;;;;;19.20;38.20;;;;;;5097112;28;19946;-65
2022/01/29 05:42:40;;;;;;;;;;;19.20;38.30;;;;;;5096767;28;19955;-63
2022/01/29 05:45:06;;;;;;;;;;;19.30;38.30;;;;;;5078282;28;20348;-64
2022/01/29 05:47:31;;;;;;;;;;;19.30;38.20;;;;;;5096331;28;19916;-64
2022/01/29 05:49:57;;;;;;;;;;;19.30;38.20;;;;;;5096396;28;19908;-64
2022/01/29 05:52:22;;;;;;;;;;;19.40;38.20;;;;;;5096322;28;19909;-63
2022/01/29 05:54:48;;;;;;;;;;;19.30;38.30;;;;;;5078139;28;20003;-63
2022/01/29 05:57:14;;;;;;;;;;;19.40;38.20;;;;;;5096290;28;19908;-64
2022/01/29 05:59:39;;;;;;;;;;;19.40;38.20;;;;;;5096290;28;19958;-63
2022/01/29 06:02:05;;;;;;;;;;;19.40;38.20;;;;;;5096077;28;19908;-64
2022/01/29 06:04:30;;;;;;;;;;;19.40;38.20;;;;;;5096050;28;19914;-64
2022/01/29 06:06:56;;;;;;;;;;;19.50;38.30;;;;;;5095750;28;19951;-64
2022/01/29 06:09:21;;;;;;;;;;;19.50;38.20;;;;;;5095860;28;20435;-63
2022/01/29 06:11:46;;;;;;;;;;;19.50;38.20;;;;;;5095849;28;19908;-64
2022/01/29 06:14:12;;;;;;;;;;;19.50;38.30;;;;;;5095762;28;19908;-64
2022/01/29 06:16:38;;;;;;;;;;;19.50;38.30;;;;;;5095689;28;19914;-64
2022/01/29 06:19:03;;;;;;;;;;;19.50;38.30;;;;;;5095697;28;19908;-64
2022/01/29 06:21:29;;;;;;;;;;;19.50;38.30;;;;;;5095603;28;20322;-63
2022/01/29 06:23:54;;;;;;;;;;;19.50;38.30;;;;;;5077456;28;19912;-63
2022/01/29 06:26:20;;;;;;;;;;;19.50;38.30;;;;;;5095517;28;20348;-64
2022/01/29 06:28:45;;;;;;;;;;;19.50;38.30;;;;;;5095429;28;19982;-64
2022/01/29 06:31:11;;;;;;;;;;;19.50;38.30;;;;;;5095644;28;19908;-64
2022/01/29 06:33:37;;;;;;;;;;;19.50;38.30;;;;;;5095278;28;20379;-65
2022/01/29 06:36:02;;;;;;;;;;;19.50;38.30;;;;;;5095309;28;19908;-64
2022/01/29 06:38:28;;;;;;;;;;;19.50;38.30;;;;;;5095372;28;19908;-63
2022/01/29 06:40:53;;;;;;;;;;;19.50;38.30;;;;;;5077311;28;20326;-64
2022/01/29 06:43:19;;;;;;;;;;;19.50;38.30;;;;;;5095468;28;19912;-63
2022/01/29 06:45:45;;;;;;;;;;;19.50;38.30;;;;;;5077436;28;20302;-63
2022/01/29 06:48:11;;;;;;;;;;;19.50;38.30;;;;;;5095525;28;19938;-63
2022/01/29 06:50:37;;;;;;;;;;;19.50;38.30;;;;;;5095539;28;19908;-65
2022/01/29 06:53:03;;;;;;;;;;;19.50;38.30;;;;;;5095453;28;19908;-64
2022/01/29 06:55:28;;;;;;;;;;;19.50;38.30;;;;;;5095666;28;19955;-63
2022/01/29 06:57:54;;;;;;;;;;;19.50;38.30;;;;;;5095397;28;19918;-64
2022/01/29 07:00:19;;;;;;;;;;;19.50;38.40;;;;;;5077069;28;19935;-64
2022/01/29 07:02:45;;;;;;;;;;;19.60;38.40;;;;;;5095193;28;20424;-63
2022/01/29 07:05:10;;;;;;;;;;;19.60;38.40;;;;;;5095489;28;20375;-63
2022/01/29 07:07:36;;;;;;;;;;;19.60;38.40;;;;;;5095067;28;20363;-63
2022/01/29 07:10:03;;;;;;;;;;;19.60;38.40;;;;;;5095257;28;19908;-63
2022/01/29 07:12:28;;;;;;;;;;;19.60;38.40;;;;;;5095047;28;20323;-64
2022/01/29 07:14:54;;;;;;;;;;;19.60;38.40;;;;;;5094999;28;20029;-64
2022/01/29 07:17:22;;;;;;;;;;;19.60;38.40;;;;;;5094990;28;20359;-64
2022/01/29 07:19:51;;;;;;;;;;;19.60;38.40;;;;;;5094925;28;19908;-64
2022/01/29 07:22:17;;;;;;;;;;;19.60;38.40;;;;;;5095172;28;19908;-63
2022/01/29 07:24:43;;;;;;;;;;;19.60;38.40;;;;;;5094837;28;20402;-64
2022/01/29 07:27:08;;;;;;;;;;;19.60;38.40;;;;;;5094727;28;20002;-66
2022/01/29 07:29:34;;;;;;;;;;;19.60;38.40;;;;;;5094718;28;19912;-63
2022/01/29 07:32:00;;;;;;;;;;;19.60;38.40;;;;;;5094934;28;19908;-64
2022/01/29 07:34:27;;;;;;;;;;;19.60;38.50;;;;;;5094659;28;20405;-63
2022/01/29 07:36:52;;;;;;;;;;;19.60;38.50;;;;;;5094654;28;19915;-64
2022/01/29 07:39:19;;;;;;;;;;;19.70;38.50;;;;;;5094503;28;19908;-64
2022/01/29 07:41:44;;;;;;;;;;;19.70;38.50;;;;;;5094556;28;19908;-63
2022/01/29 07:44:10;;;;;;;;;;;19.70;38.50;;;;;;5094308;28;20042;-64
2022/01/29 07:46:35;;;;;;;;;;;19.70;38.50;;;;;;5094351;28;19947;-63
2022/01/29 07:49:01;;;;;;;;;;;19.70;38.50;;;;;;5094201;28;19916;-64
2022/01/29 07:51:26;;;;;;;;;;;19.70;38.50;;;;;;5075991;28;20355;-63
2022/01/29 07:53:52;;;;;;;;;;;19.70;38.50;;;;;;5093791;28;19909;-64
2022/01/29 07:56:20;;;;;;;;;;;19.70;38.50;;;;;;5094493;28;20355;-64
2022/01/29 07:58:46;;;;;;;;;;;19.70;38.50;;;;;;5094065;28;19939;-63
2022/01/29 08:01:12;;;;;;;;;;;19.70;38.60;;;;;;5094189;28;20406;-64
2022/01/29 08:03:37;;;;;;;;;;;19.70;38.60;;;;;;5094221;28;19998;-64
2022/01/29 08:06:02;;;;;;;;;;;19.70;38.60;;;;;;5094134;28;20330;-65
2022/01/29 08:08:28;;;;;;;;;;;19.70;38.60;;;;;;5075811;28;20279;-64
2022/01/29 08:10:53;;;;;;;;;;;19.70;38.60;;;;;;5093941;28;19920;-64
2022/01/29 08:13:19;;;;;;;;;;;19.70;38.60;;;;;;5094148;28;19912;-63
2022/01/29 08:15:44;;;;;;;;;;;19.70;38.60;;;;;;5093905;28;19952;-64
2022/01/29 08:18:10;;;;;;;;;;;19.70;38.60;;;;;;5093886;28;19912;-64
2022/01/29 08:20:35;;;;;;;;;;;19.70;38.60;;;;;;5093889;28;19995;-64
2022/01/29 08:23:07;;;;;;;;;;;19.70;38.60;;;;;;5093850;28;19908;-64
2022/01/29 08:25:33;;;;;;;;;;;19.70;38.60;;;;;;5093786;28;20380;-64
2022/01/29 08:27:58;;;;;;;;;;;19.70;38.60;;;;;;5093641;28;20025;-64
2022/01/29 08:30:24;;;;;;;;;;;19.70;38.60;;;;;;5075632;28;19996;-65
2022/01/29 08:32:49;;;;;;;;;;;19.80;38.60;;;;;;5093735;28;20007;-63
2022/01/29 08:35:15;;;;;;;;;;;19.70;38.70;;;;;;5093875;28;19995;-63
2022/01/29 08:37:41;;;;;;;;;;;19.80;38.70;;;;;;5075480;28;19909;-63
2022/01/29 08:40:07;;;;;;;;;;;19.80;38.70;;;;;;5093590;28;19949;-63
2022/01/29 08:42:33;;;;;;;;;;;19.70;38.70;;;;;;5093613;28;19989;-64
2022/01/29 08:44:59;;;;;;;;;;;19.80;38.70;;;;;;5093581;28;19953;-64
2022/01/29 08:47:25;;;;;;;;;;;19.80;38.70;;;;;;5093401;28;19920;-63
2022/01/29 08:49:50;;;;;;;;;;;19.80;38.70;;;;;;5093456;28;19942;-63
2022/01/29 08:52:16;;;;;;;;;;;19.80;38.70;;;;;;5093373;28;19915;-64
2022/01/29 08:54:41;;;;;;;;;;;19.80;38.70;;;;;;5093564;28;20264;-63
2022/01/29 08:57:07;;;;;;;;;;;19.80;38.80;;;;;;5093206;28;19908;-63
2022/01/29 08:59:32;;;;;;;;;;;19.80;38.80;;;;;;5093193;28;19927;-64
2022/01/29 09:01:57;;;;;;;;;;;19.80;38.60;;;;;;5093607;28;19913;-62
2022/01/29 09:04:23;;;;;;;;;;;19.80;38.70;;;;;;5093417;28;19912;-63
2022/01/29 09:06:48;;;;;;;;;;;19.80;38.70;;;;;;5096460;28;19991;-63
2022/01/29 09:09:20;;;;;;;;;;;19.80;38.80;;;;;;5097528;28;20003;-63
2022/01/29 09:11:46;;;;;;;;;;;19.80;38.80;;;;;;5097353;28;20367;-64
2022/01/29 09:14:12;;;;;;;;;;;19.80;38.80;;;;;;5097887;28;19931;-64
2022/01/29 09:16:37;;;;;;;;;;;19.80;38.80;;;;;;5097152;28;20348;-63
2022/01/29 09:19:02;;;;;;;;;;;19.80;38.80;;;;;;5097579;28;19931;-63
2022/01/29 09:21:28;;;;;;;;;;;19.80;38.80;;;;;;5079034;28;19954;-63
2022/01/29 09:23:56;;;;;;;;;;;19.80;38.90;;;;;;5097103;28;19951;-64
2022/01/29 09:26:24;;;;;;;;;;;19.90;38.70;;;;;;5096982;28;19992;-64
2022/01/29 09:28:49;;;;;;;;;;;19.80;38.80;;;;;;5096905;28;19920;-63
2022/01/29 09:31:15;;;;;;;;;;;19.90;38.80;;;;;;5096993;28;20011;-63
2022/01/29 09:33:40;;;;;;;;;;;19.90;38.80;;;;;;5097172;28;19908;-63
2022/01/29 09:36:06;;;;;;;;;;;19.90;38.80;;;;;;5096962;28;20017;-64
2022/01/29 09:38:31;;;;;;;;;;;19.90;38.80;;;;;;5078793;28;19908;-65
2022/01/29 09:40:57;;;;;;;;;;;19.90;38.80;;;;;;5078701;28;19908;-63
2022/01/29 09:43:25;;;;;;;;;;;19.90;38.80;;;;;;5096843;28;20287;-63
2022/01/29 09:45:51;;;;;;;;;;;19.90;38.80;;;;;;5096733;28;19908;-63
2022/01/29 09:48:23;;;;;;;;;;;19.90;38.90;;;;;;5096839;28;20298;-63
2022/01/29 09:50:50;;;;;;;;;;;19.90;38.90;;;;;;5096497;28;19908;-64
2022/01/29 09:53:15;;;;;;;;;;;19.90;38.90;;;;;;5078015;28;19965;-63
2022/01/29 09:55:42;;;;;;;;;;;19.90;38.90;;;;;;5096355;28;19908;-64
2022/01/29 09:58:07;;;;;;;;;;;19.90;38.90;;;;;;5061790;28;19946;-64
2022/01/29 10:00:33;;;;;;;;;;;19.90;38.90;;;;;;5077123;28;20015;-63
2022/01/29 10:03:11;;;;;;;;;;;19.90;38.90;;;;;;5095029;28;20344;-64
2022/01/29 10:05:37;;;;;;;;;;;20.00;38.90;;;;;;5095136;28;19908;-64
2022/01/29 10:08:03;;;;;;;;;;;19.90;38.80;;;;;;5076832;28;19986;-63
2022/01/29 10:10:28;;;;;;;;;;;19.90;38.90;;;;;;5095003;28;19908;-65
2022/01/29 10:12:54;;;;;;;;;;;20.00;38.90;;;;;;5095172;28;20318;-63
2022/01/29 10:15:22;;;;;;;;;;;19.90;38.90;;;;;;5095080;28;19914;-64
2022/01/29 10:17:48;;;;;;;;;;;20.00;38.90;;;;;;5094649;28;19908;-64
2022/01/29 10:20:14;;;;;;;;;;;20.00;39.00;;;;;;5095069;28;20317;-64
2022/01/29 10:22:40;;;;;;;;;;;19.90;39.00;;;;;;5094760;28;19908;-64
2022/01/29 10:25:09;;;;;;;;;;;19.90;38.90;;;;;;5094884;28;19919;-64
2022/01/29 10:27:35;;;;;;;;;;;19.90;38.90;;;;;;5094665;28;20364;-64
2022/01/29 10:30:01;;;;;;;;;;;20.00;39.00;;;;;;5076611;28;20015;-65
2022/01/29 10:32:28;;;;;;;;;;;20.00;39.00;;;;;;5094796;28;20355;-65
2022/01/29 10:34:55;;;;;;;;;;;19.90;39.00;;;;;;5094780;28;19943;-64
2022/01/29 10:37:22;;;;;;;;;;;20.00;39.10;;;;;;5094718;28;19912;-63
2022/01/29 10:39:52;;;;;;;;;;;19.90;39.00;;;;;;5076252;28;19916;-64
2022/01/29 10:42:19;;;;;;;;;;;20.00;39.00;;;;;;5076391;28;19988;-64
2022/01/29 10:44:46;;;;;;;;;;;20.00;39.00;;;;;;5076311;28;20010;-64
2022/01/29 10:47:12;;;;;;;;;;;20.00;38.90;;;;;;5094322;28;19908;-64
2022/01/29 10:49:44;;;;;;;;;;;20.00;39.00;;;;;;5094402;28;20287;-65
2022/01/29 10:52:10;;;;;;;;;;;20.00;39.00;;;;;;5094793;28;20383;-64
2022/01/29 10:54:37;;;;;;;;;;;20.00;39.00;;;;;;5094256;28;19951;-64
2022/01/29 10:57:07;;;;;;;;;;;20.00;39.00;;;;;;5094614;28;19991;-65
2022/01/29 10:59:33;;;;;;;;;;;20.00;39.10;;;;;;5033815;28;1711760;-65
2022/01/29 11:02:00;;;;;;;;;;;20.00;39.10;;;;;;5095215;28;19912;-64
2022/01/29 11:04:28;;;;;;;;;;;20.00;39.10;;;;;;5095262;28;19908;-64
2022/01/29 11:06:55;;;;;;;;;;;20.00;39.10;;;;;;5095245;28;19916;-65
2022/01/29 11:09:21;;;;;;;;;;;20.00;39.10;;;;;;5094966;28;20352;-64
2022/01/29 11:11:47;;;;;;;;;;;20.00;39.10;;;;;;5095240;28;19947;-64
2022/01/29 11:14:14;;;;;;;;;;;20.00;39.10;;;;;;5094922;28;19908;-64
2022/01/29 11:16:41;;;;;;;;;;;20.00;39.10;;;;;;5094761;28;19908;-63
2022/01/29 11:19:06;;;;;;;;;;;20.00;39.20;;;;;;5094820;28;20359;-64
2022/01/29 11:21:33;;;;;;;;;;;20.00;39.10;;;;;;5094777;28;19908;-63
2022/01/29 11:23:58;;;;;;;;;;;20.00;39.20;;;;;;5094886;28;19908;-63
2022/01/29 11:26:24;;;;;;;;;;;20.00;39.20;;;;;;5094838;28;19908;-64
2022/01/29 11:28:49;;;;;;;;;;;20.00;39.20;;;;;;5094191;28;20011;-64
2022/01/29 11:31:15;;;;;;;;;;;20.00;39.10;;;;;;5094655;28;19912;-64
2022/01/29 11:34:08;;;;;;;;;;;20.00;39.20;;;;;;5094627;28;19994;-64
2022/01/29 11:36:48;;;;;;;;;;;20.00;39.20;;;;;;5094412;28;19953;-64
2022/01/29 11:39:22;;;;;;;;;;;20.00;39.20;;;;;;5094526;28;19930;-64
2022/01/29 11:42:06;;;;;;;;;;;20.00;39.20;;;;;;5094374;28;19908;-63
2022/01/29 11:44:32;;;;;;;;;;;20.00;39.20;;;;;;5094350;28;19908;-64
2022/01/29 11:47:17;;;;;;;;;;;20.00;39.20;;;;;;5094155;28;19915;-63
2022/01/29 11:49:42;;;;;;;;;;;20.00;39.10;;;;;;5094029;28;19917;-64
2022/01/29 11:52:20;;;;;;;;;;;20.00;39.30;;;;;;5094180;28;19909;-63
2022/01/29 11:55:02;;;;;;;;;;;20.00;39.20;;;;;;5094320;28;19912;-64
2022/01/29 11:57:27;;;;;;;;;;;20.00;39.20;;;;;;5094343;28;19919;-64
2022/01/29 11:59:53;;;;;;;;;;;20.00;39.30;;;;;;5094063;28;19947;-64
2022/01/29 12:02:18;;;;;;;;;;;20.00;39.20;;;;;;5094015;28;20387;-63
2022/01/29 12:04:51;;;;;;;;;;;20.00;39.20;;;;;;5093951;28;19947;-65
2022/01/29 12:07:40;;;;;;;;;;;20.00;39.20;;;;;;5093878;28;19968;-64
2022/01/29 12:10:12;;;;;;;;;;;20.00;39.20;;;;;;5093279;28;19938;-64
2022/01/29 12:12:47;;;;;;;;;;;20.00;39.20;;;;;;5075578;28;19961;-64
2022/01/29 12:15:13;;;;;;;;;;;20.10;39.20;;;;;;5093963;28;19912;-64
2022/01/29 12:17:42;;;;;;;;;;;20.00;39.30;;;;;;5075660;28;19953;-64
2022/01/29 12:20:09;;;;;;;;;;;20.00;39.30;;;;;;5093838;28;20385;-64
2022/01/29 12:22:35;;;;;;;;;;;20.00;39.30;;;;;;5093905;28;19908;-65
2022/01/29 12:25:02;;;;;;;;;;;20.00;39.30;;;;;;5075450;28;19908;-64
2022/01/29 12:27:43;;;;;;;;;;;20.00;39.30;;;;;;5093524;28;19959;-65
2022/01/29 12:30:09;;;;;;;;;;;20.00;39.30;;;;;;5093675;28;19981;-64
2022/01/29 12:32:35;;;;;;;;;;;20.00;39.30;;;;;;5093799;28;20279;-64
2022/01/29 12:35:03;;;;;;;;;;;20.00;39.30;;;;;;5093544;28;19908;-64
2022/01/29 12:37:28;;;;;;;;;;;20.00;39.40;;;;;;5075447;28;20014;-64
2022/01/29 12:40:09;;;;;;;;;;;20.00;39.30;;;;;;5075476;28;19908;-64
2022/01/29 12:42:43;;;;;;;;;;;20.10;39.40;;;;;;5093614;28;19916;-63
2022/01/29 12:45:09;;;;;;;;;;;20.10;39.30;;;;;;5093335;28;19909;-63
2022/01/29 12:47:35;;;;;;;;;;;20.10;39.40;;;;;;5093504;28;19918;-63
2022/01/29 12:50:01;;;;;;;;;;;20.10;39.40;;;;;;5093320;28;20364;-64
2022/01/29 12:52:28;;;;;;;;;;;20.10;39.50;;;;;;5093436;28;19942;-64
2022/01/29 12:54:54;;;;;;;;;;;20.00;39.40;;;;;;5093516;28;19908;-63
2022/01/29 12:57:21;;;;;;;;;;;20.10;39.40;;;;;;5093545;28;19954;-64
2022/01/29 12:59:46;;;;;;;;;;;20.00;39.40;;;;;;5093162;28;19947;-64
2022/01/29 13:02:12;;;;;;;;;;;20.00;39.40;;;;;;5093243;28;19908;-65
2022/01/29 13:04:38;;;;;;;;;;;20.10;39.40;;;;;;5093207;28;19912;-65
2022/01/29 13:07:04;;;;;;;;;;;20.10;39.40;;;;;;5093154;28;19916;-64
2022/01/29 13:09:34;;;;;;;;;;;20.10;39.40;;;;;;5093067;28;19928;-64
2022/01/29 13:12:01;;;;;;;;;;;20.00;39.40;;;;;;5093085;28;19908;-67
2022/01/29 13:14:27;;;;;;;;;;;20.00;39.50;;;;;;5074987;28;19908;-64
2022/01/29 13:16:56;;;;;;;;;;;20.10;39.40;;;;;;5093154;28;19908;-64
2022/01/29 13:19:25;;;;;;;;;;;20.10;39.40;;;;;;5093039;28;20322;-64
2022/01/29 13:21:56;;;;;;;;;;;20.10;39.40;;;;;;5093049;28;20364;-64
2022/01/29 13:24:25;;;;;;;;;;;20.10;39.40;;;;;;5093026;28;19942;-65
2022/01/29 13:26:57;;;;;;;;;;;20.10;39.40;;;;;;5093145;28;19943;-64
2022/01/29 13:29:31;;;;;;;;;;;20.10;39.50;;;;;;5093278;28;19916;-65
2022/01/29 13:31:57;;;;;;;;;;;20.10;39.50;;;;;;5093168;28;19914;-64
2022/01/29 13:34:26;;;;;;;;;;;20.10;39.50;;;;;;5093025;28;20297;-64
2022/01/29 13:36:52;;;;;;;;;;;20.10;39.40;;;;;;5093375;28;19908;-64
2022/01/29 13:39:18;;;;;;;;;;;20.10;39.40;;;;;;5075152;28;19915;-64
2022/01/29 13:41:44;;;;;;;;;;;20.10;39.50;;;;;;5093256;28;20274;-64
2022/01/29 13:44:10;;;;;;;;;;;20.10;39.50;;;;;;5092959;28;19908;-64
2022/01/29 13:46:36;;;;;;;;;;;20.10;39.50;;;;;;5092960;28;19916;-64
2022/01/29 13:49:03;;;;;;;;;;;20.10;39.50;;;;;;5092828;28;20007;-64
2022/01/29 13:51:34;;;;;;;;;;;20.10;39.50;;;;;;5093721;28;19908;-64
2022/01/29 13:54:01;;;;;;;;;;;20.10;39.50;;;;;;5096474;28;20082;-63
2022/01/29 13:56:28;;;;;;;;;;;20.10;39.50;;;;;;5061951;28;19954;-64
2022/01/29 13:58:57;;;;;;;;;;;20.10;39.50;;;;;;5096122;28;19946;-63
2022/01/29 14:01:33;;;;;;;;;;;20.10;39.50;;;;;;5096237;28;19958;-63
2022/01/29 14:03:58;;;;;;;;;;;20.10;39.50;;;;;;5096374;28;19909;-63
2022/01/29 14:06:43;;;;;;;;;;;20.10;39.50;;;;;;5096189;28;19942;-63
2022/01/29 14:09:11;;;;;;;;;;;20.10;39.50;;;;;;5096275;28;19923;-64
2022/01/29 14:11:52;;;;;;;;;;;20.10;39.50;;;;;;5096214;28;19999;-64
2022/01/29 14:14:17;;;;;;;;;;;20.10;39.50;;;;;;5096152;28;19961;-64
2022/01/29 14:16:43;;;;;;;;;;;20.10;39.50;;;;;;5077967;28;19995;-63
2022/01/29 14:19:19;;;;;;;;;;;20.10;39.50;;;;;;5096034;28;19908;-64
2022/01/29 14:21:50;;;;;;;;;;;20.10;39.60;;;;;;5095972;28;19957;-64
2022/01/29 14:24:18;;;;;;;;;;;20.20;39.50;;;;;;5096192;28;19972;-63
2022/01/29 14:26:44;;;;;;;;;;;20.10;39.50;;;;;;5095822;28;19916;-64
2022/01/29 14:29:09;;;;;;;;;;;20.10;39.60;;;;;;5095690;28;20352;-64